createdAt,value
2022-10-30T00:00:40.989Z,18.00
2022-10-30T00:03:11.939Z,18.00
2022-10-30T00:05:42.333Z,18.00
2022-10-30T00:08:11.227Z,17.90
2022-10-30T00:10:38.967Z,17.90
2022-10-30T00:13:05.738Z,17.90
2022-10-30T00:15:33.090Z,17.90
2022-10-30T00:18:00.190Z,17.90
2022-10-30T00:20:27.501Z,17.90
2022-10-30T00:22:54.700Z,17.90
2022-10-30T00:25:21.756Z,17.90
2022-10-30T00:27:48.568Z,17.90
2022-10-30T00:30:16.381Z,17.90
2022-10-30T00:32:43.875Z,17.90
2022-10-30T00:35:11.482Z,17.90
2022-10-30T00:37:38.270Z,17.80
2022-10-30T00:40:06.749Z,17.80
2022-10-30T00:42:33.742Z,17.80
2022-10-30T00:45:00.710Z,17.80
2022-10-30T00:47:33.223Z,17.80
2022-10-30T00:50:11.199Z,17.80
2022-10-30T00:52:45.619Z,17.80
2022-10-30T00:55:17.368Z,17.80
2022-10-30T00:57:46.074Z,17.70
2022-10-30T01:00:13.671Z,17.70
2022-10-30T01:02:42.280Z,17.70
2022-10-30T01:07:42.636Z,17.70
2022-10-30T01:10:10.590Z,17.70
2022-10-30T01:12:38.577Z,17.70
2022-10-30T01:15:06.456Z,17.60
2022-10-30T01:18:10.665Z,17.60
2022-10-30T01:20:55.818Z,17.60
2022-10-30T01:23:28.488Z,17.60
2022-10-30T01:26:23.222Z,17.70
2022-10-30T01:29:47.937Z,17.70
2022-10-30T01:32:23.325Z,17.50
2022-10-30T01:35:08.366Z,17.50
2022-10-30T01:37:39.505Z,17.50
2022-10-30T01:40:11.421Z,17.40
2022-10-30T01:42:44.297Z,17.40
2022-10-30T01:45:40.585Z,17.30
2022-10-30T01:48:42.019Z,17.30
2022-10-30T01:51:36.510Z,17.30
2022-10-30T05:10:17.249Z,16.10
2022-10-30T05:12:47.243Z,15.50
2022-10-30T05:15:14.888Z,15.50
2022-10-30T05:17:41.889Z,15.50
2022-10-30T05:20:10.574Z,15.40
2022-10-30T05:22:39.348Z,15.40
2022-10-30T09:58:21.505Z,15.30
2022-10-30T10:00:54.762Z,18.80
2022-10-30T10:03:47.100Z,18.80
2022-10-30T10:06:19.257Z,18.90
2022-10-30T10:09:13.406Z,19.10
2022-10-30T10:11:46.034Z,19.20
2022-10-30T10:14:24.553Z,19.20
2022-10-30T10:16:56.491Z,19.30
2022-10-30T10:19:32.600Z,19.40
2022-10-30T10:22:02.018Z,19.50
2022-10-30T10:24:35.777Z,19.60
2022-10-30T10:27:30.192Z,19.70
2022-10-30T10:30:22.473Z,19.80
2022-10-30T10:35:49.535Z,20.00
2022-10-30T10:38:28.521Z,20.30
2022-10-30T10:40:58.677Z,20.30
2022-10-30T10:43:56.072Z,20.40
2022-10-30T10:46:50.570Z,20.40
2022-10-30T10:49:42.253Z,20.70
2022-10-30T10:52:11.920Z,20.90
2022-10-30T10:54:46.704Z,21.00
2022-10-30T16:27:44.096Z,22.40
2022-10-30T16:30:14.205Z,20.30
2022-10-30T16:32:43.083Z,20.10
2022-10-30T16:35:11.786Z,20.00
2022-10-30T16:37:40.760Z,20.00
2022-10-30T16:40:14.481Z,20.00
2022-10-30T16:42:45.044Z,19.80
2022-10-30T16:45:11.810Z,19.90
2022-10-30T16:47:51.495Z,19.90
2022-10-30T16:50:20.515Z,19.90
2022-10-30T16:52:49.578Z,19.70
2022-10-30T16:55:20.503Z,19.70
2022-10-30T16:57:53.273Z,19.70
2022-10-30T17:00:26.030Z,19.60
2022-10-30T17:02:56.987Z,19.50
2022-10-30T17:05:30.692Z,19.50
2022-10-30T17:08:17.674Z,19.40
2022-10-30T17:10:56.044Z,19.40
2022-10-30T17:13:46.021Z,19.40
2022-10-30T17:16:26.662Z,19.40
2022-10-30T17:19:31.593Z,19.40
2022-10-30T17:22:02.111Z,19.40
2022-10-30T17:24:32.899Z,19.40
2022-10-30T17:27:03.000Z,19.40
2022-10-30T17:29:41.007Z,19.30
2022-10-30T17:32:42.743Z,19.30
2022-10-30T17:35:19.466Z,19.20
2022-10-30T17:37:46.238Z,19.30
2022-10-30T17:40:13.829Z,19.10
2022-10-30T17:42:41.354Z,19.10
2022-10-30T17:45:14.390Z,19.20
2022-10-30T17:47:41.214Z,19.20
2022-10-30T17:50:08.308Z,19.10
2022-10-30T17:52:35.137Z,19.00
2022-10-30T17:55:03.050Z,19.00
2022-10-30T17:57:29.853Z,18.90
2022-10-30T17:59:56.963Z,18.90
2022-10-30T18:02:24.074Z,18.90
2022-10-30T18:04:53.308Z,18.90
2022-10-30T18:07:40.545Z,18.80
2022-10-30T18:10:08.620Z,18.70
2022-10-30T18:12:35.849Z,18.70
2022-10-30T18:15:21.833Z,18.70
2022-10-30T18:17:48.663Z,18.60
2022-10-30T18:20:15.551Z,18.50
2022-10-30T18:22:42.419Z,18.40
2022-10-30T18:25:22.424Z,18.30
2022-10-30T18:27:49.431Z,18.40
2022-10-30T18:30:16.620Z,18.40
2022-10-30T18:32:43.940Z,18.40
2022-10-30T18:35:15.346Z,18.40
2022-10-30T18:37:42.455Z,18.40
2022-10-30T18:40:10.649Z,18.30
2022-10-30T18:42:38.008Z,18.40
2022-10-30T18:45:21.268Z,18.40
2022-10-30T18:47:49.141Z,18.40
2022-10-30T18:50:17.090Z,18.30
2022-10-30T18:52:44.052Z,18.40
2022-10-30T18:55:22.651Z,18.30
2022-10-30T18:57:50.856Z,18.40
2022-10-30T19:00:22.700Z,18.40
2022-10-30T19:02:49.855Z,18.40
2022-10-30T19:05:35.813Z,18.40
2022-10-30T19:08:05.811Z,18.30
2022-10-30T19:10:36.236Z,18.40
2022-10-30T19:13:17.770Z,18.40
2022-10-30T19:15:47.666Z,18.30
2022-10-30T19:18:15.531Z,18.30
2022-10-30T19:21:03.324Z,18.30
2022-10-30T19:23:30.003Z,18.30
2022-10-30T19:25:57.177Z,18.30
2022-10-30T19:28:24.074Z,18.20
2022-10-30T19:30:51.077Z,18.20
2022-10-30T19:33:19.817Z,18.20
2022-10-30T19:35:56.542Z,18.10
2022-10-30T19:38:23.571Z,18.10
2022-10-30T19:40:51.298Z,18.10
2022-10-30T19:43:18.089Z,18.10
2022-10-30T19:45:45.436Z,18.00
2022-10-30T19:48:34.400Z,18.00
2022-10-30T19:51:09.562Z,17.90
2022-10-30T19:53:36.335Z,17.90
2022-10-30T19:56:03.481Z,17.90
2022-10-30T19:58:30.315Z,17.80
2022-10-30T20:01:00.823Z,17.80
2022-10-30T20:03:28.744Z,17.80
2022-10-30T20:05:55.997Z,17.70
2022-10-30T20:08:24.985Z,17.70
2022-10-30T20:10:56.896Z,17.70
2022-10-30T20:13:25.373Z,17.80
2022-10-30T20:15:54.299Z,17.70
2022-10-30T20:18:31.973Z,17.80
2022-10-30T20:21:04.812Z,17.60
2022-10-30T20:23:31.799Z,17.60
2022-10-30T21:08:13.613Z,17.60
2022-10-30T21:47:38.277Z,17.20
2022-10-30T21:50:07.872Z,16.90
2022-10-30T21:52:37.986Z,16.90
2022-10-30T21:55:05.282Z,16.80
2022-10-30T21:57:32.081Z,16.70
2022-10-30T22:00:01.804Z,16.70
2022-10-30T22:05:00.008Z,16.60
2022-10-30T22:07:26.800Z,16.70
2022-10-30T22:09:54.643Z,16.60
2022-10-30T22:14:48.600Z,16.60
